• Join FlightAware (Why Join?)
  • Login
  • US Flag 
02:25PM EDT


 

Airport Tracker/Info


-or-


 

Live Flight TrackerFlight Track Log ✈ KAL243 ✈ 09-May-2013 ✈ KATL - KDFW

Flight Track Log - Related Links

Times and Time Zones

All times are in EDT time to prevent confusion due to time zone crossing. See the KAL243 flight status page for this flight to view local times or setup timezone preferences in your user account.

Time Position Orientation Groundspeed Altitude Reporting Facility
EDT Latitude Longitude Course Direction KTS MPH feet Rate Location/Type
02:30AM 33.6190 -84.4640 255° West 168 193 2,000  Level FlightAware
02:30AM 33.6130 -84.4790 244° Southwest 174 200 2,600 1,920 Climbing FlightAware
02:30AM 33.6060 -84.4940 241° Southwest 183 211 3,300 1,980 Climbing FlightAware
02:31AM 33.5890 -84.5340 243° Southwest 195 224 4,600 1,680 Climbing FlightAware
02:31AM 33.5860 -84.5600 262° West 235 270 5,000 2,520 Climbing FlightAware
02:32AM 33.5910 -84.6240 275° West 6,800 2,880 Climbing FlightAware
02:32AM 33.5940 -84.6680 275° West 279 321 8,400 3,300 Climbing FlightAware
02:33AM 33.5980 -84.7280 275° West 288 331 10,400 2,220 Climbing FlightAware
02:34AM 33.6050 -84.8100 276° West 346 398 11,600 2,040 Climbing FlightAware
02:34AM 33.6120 -84.8900 276° West 368 423 13,300 2,580 Climbing FlightAware
02:35AM 33.6160 -84.9670 274° West 383 441 15,100 2,700 Climbing FlightAware
02:36AM 33.6230 -85.0640 275° West 393 452 17,200 2,820 Climbing FlightAware
02:37AM 33.6320 -85.1900 275° West 407 468 19,800 2,580 Climbing FlightAware
02:38AM 33.6390 -85.2880 275° West 414 476 21,500 1,080 Climbing FlightAware
02:38AM 33.6450 -85.3780 275° West 414 476 21,500 2,160 Level FlightAware
02:39AM 33.6550 -85.5150 275° West 433 498 25,000 2,160 Climbing FlightAware
02:40AM 33.6610 -85.6110 274° West 433 498 25,000  Level FlightAware
02:41AM 33.6660 -85.6930 274° West 433 498 25,000  Level FlightAware
02:41AM 33.6720 -85.7950 274° West 433 498 25,000  Level FlightAware
02:42AM 33.6760 -85.8760 273° West 433 498 25,000  Level FlightAware
02:43AM 33.6810 -85.9580 274° West 433 498 25,000 2,820 Level FlightAware
02:45AM 33.6380 -86.4200 264° West 439 505 34,000 2,760 Climbing FlightAware
02:46AM 33.6340 -86.5410 268° West 437 503 34,000  Level FlightAware
02:47AM 33.6310 -86.6540 268° West 438 504 34,000  Level FlightAware
02:48AM 33.6270 -86.7830 268° West 439 505 34,000  Level FlightAware
02:49AM 33.6230 -86.9090 268° West 439 505 34,000  Level FlightAware
02:49AM 33.6200 -87.0040 268° West 439 505 34,000  Level FlightAware
02:50AM 33.6170 -87.0870 268° West 439 505 34,000  Level FlightAware
02:51AM 33.6150 -87.1700 268° West 439 505 34,000  Level FlightAware
02:51AM 33.6120 -87.2530 268° West 439 505 34,000  Level FlightAware
02:52AM 33.6100 -87.3360 268° West 439 505 34,000  Level FlightAware
02:53AM 33.6070 -87.4390 268° West 439 505 34,000  Level FlightAware
02:53AM 33.6050 -87.5220 268° West 439 505 34,000  Level FlightAware
02:54AM 33.6020 -87.6050 268° West 439 505 34,000  Level FlightAware
02:55AM 33.6000 -87.6880 268° West 439 505 34,000  Level FlightAware
02:55AM 33.5970 -87.7710 268° West 439 505 34,000  Level FlightAware
02:56AM 33.5940 -87.8740 268° West 439 505 34,000  Level FlightAware
02:57AM 33.5920 -87.9570 268° West 439 505 34,000  Level FlightAware
02:58AM 33.5890 -88.0400 268° West 439 505 34,000  Level FlightAware
02:58AM 33.5870 -88.1230 268° West 439 505 34,000  Level FlightAware
02:59AM 33.5606 -88.4203 268° West 447 514 34,000  Level Memphis Center
03:00AM 33.5544 -88.5700 267° West 447 514 34,000  Level Memphis Center
03:01AM 33.5461 -88.7197 266° West 452 520 34,000  Level Memphis Center
03:02AM 33.5439 -88.8692 269° West 457 526 34,000  Level Memphis Center
03:03AM 33.5353 -89.0214 266° West 457 526 34,000  Level Memphis Center
03:04AM 33.5283 -89.1736 267° West 462 532 34,000  Level Memphis Center
03:05AM 33.5214 -89.3231 267° West 462 532 34,000  Level Memphis Center
03:06AM 33.5100 -89.4753 265° West 462 532 34,000  Level Memphis Center
03:07AM 33.5025 -89.6247 267° West 462 532 34,000  Level Memphis Center
03:08AM 33.4950 -89.7792 267° West 462 532 34,000  Level Memphis Center
03:09AM 33.4853 -89.9464 266° West 462 532 34,000  Level Memphis Center
03:10AM 33.4753 -90.0958 265° West 462 532 34,000  Level Memphis Center
03:11AM 33.4672 -90.2478 266° West 462 532 34,000  Level Memphis Center
03:12AM 33.4569 -90.3994 265° West 462 532 34,000  Level Memphis Center
03:13AM 33.4464 -90.5514 265° West 462 532 34,000  Level Memphis Center
03:14AM 33.4375 -90.7033 266° West 462 532 34,000  Level Memphis Center
03:15AM 33.4286 -90.8525 266° West 462 532 34,000  Level Memphis Center
03:16AM 33.4156 -91.0042 264° West 462 532 34,000  Level Memphis Center
03:17AM 33.4083 -91.1536 267° West 462 532 34,000  Level Memphis Center
03:18AM 33.3969 -91.3053 265° West 462 532 34,000  Level Memphis Center
03:20AM 33.3878 -91.5550 268° West 449 517 34,000  Level Fort Worth Center
03:21AM 33.3761 -91.7100 265° West 454 522 34,000  Level Fort Worth Center
03:22AM 33.3681 -91.8572 266° West 459 528 34,000  Level Fort Worth Center
03:23AM 33.3536 -92.0047 263° West 459 528 34,000  Level Fort Worth Center
03:24AM 33.3433 -92.1547 265° West 459 528 34,000  Level Fort Worth Center
03:25AM 33.3328 -92.3044 265° West 459 528 34,000  Level Fort Worth Center
03:26AM 33.3181 -92.4544 263° West 459 528 34,000  Level Fort Worth Center
03:27AM 33.3072 -92.6067 265° West 459 528 34,000  Level Fort Worth Center
03:32AM 33.2347 -93.4225 265° West 440 506 34,000  Level FlightAware ADS-B
03:32AM 33.2284 -93.4945 264° West 436 502 34,000  Level FlightAware ADS-B
03:33AM 33.2218 -93.5705 264° West 434 499 34,000  Level FlightAware ADS-B
03:33AM 33.2154 -93.6437 264° West 427 491 34,000  Level FlightAware ADS-B
03:34AM 33.2027 -93.7882 264° West 424 488 34,000  Level FlightAware ADS-B
03:35AM 33.1959 -93.8648 264° West 423 487 34,000  Level FlightAware ADS-B
03:36AM 33.1855 -93.9784 264° West 423 487 34,000  Level FlightAware ADS-B
03:36AM 33.1790 -94.0480 264° West 421 484 34,000  Level FlightAware
03:37AM 33.1720 -94.1260 264° West 420 483 34,000  Level FlightAware
03:38AM 33.1604 -94.2514 264° West 416 479 34,000  Level FlightAware ADS-B
03:39AM 33.1517 -94.3445 264° West 414 476 34,000  Level FlightAware ADS-B
03:39AM 33.1451 -94.4148 264° West 413 475 34,000  Level FlightAware ADS-B
03:40AM 33.1388 -94.4825 264° West 410 472 34,000  Level FlightAware ADS-B
03:40AM 33.1320 -94.5540 264° West 407 468 34,000  Level FlightAware
03:41AM 33.1227 -94.6515 264° West 403 464 34,000  Level FlightAware ADS-B
03:42AM 33.1160 -94.7240 264° West 403 464 34,000  Level FlightAware
03:42AM 33.1072 -94.8127 263° West 404 465 34,000  Level FlightAware ADS-B
03:43AM 33.0970 -94.9190 263° West 403 464 34,000  Level FlightAware
03:43AM 33.0909 -94.9763 263° West 403 464 34,000  Level FlightAware ADS-B
03:44AM 33.0833 -95.0533 263° West 404 465 34,000  Level FlightAware ADS-B
03:44AM 33.0790 -95.1000 264° West 403 464 34,000 -300 Level FlightAware
03:45AM 33.0710 -95.1810 263° West 398 458 33,700 -1,200 Descending FlightAware
03:45AM 33.0623 -95.2634 263° West 402 463 32,800 -1,320 Descending FlightAware ADS-B
03:46AM 33.0541 -95.3425 263° West 388 447 32,200 -1,020 Descending FlightAware ADS-B
03:47AM 33.0410 -95.4760 263° West 389 448 31,100 -1,080 Descending FlightAware
03:47AM 33.0389 -95.4928 262° West 386 444 31,000 -1,380 Descending FlightAware ADS-B
03:48AM 33.0315 -95.5651 263° West 388 447 30,200 -1,980 Descending FlightAware ADS-B
03:48AM 33.0250 -95.6290 263° West 392 451 28,900 -2,640 Descending FlightAware ADS-B
03:49AM 33.0130 -95.7410 263° West 397 457 26,500 -2,700 Descending FlightAware
03:50AM 32.9990 -95.8670 262° West 395 455 23,800 -2,520 Descending FlightAware
03:51AM 32.9920 -95.9380 263° West 389 448 22,300 -3,060 Descending FlightAware
03:52AM 32.9770 -96.0740 263° West 390 449 19,000 -3,240 Descending FlightAware
03:52AM 32.9690 -96.1560 263° West 385 443 17,200 -1,680 Descending FlightAware
03:53AM 32.9610 -96.2260 262° West 384 442 16,800 -2,880 Descending FlightAware
03:54AM 32.9680 -96.3320 275° West 383 441 13,200 -4,080 Descending FlightAware
03:55AM 32.9760 -96.4160 276° West 380 437 11,100 -2,160 Descending FlightAware
03:55AM 32.9820 -96.5060 275° West 354 407 10,200 -960 Descending FlightAware
03:56AM 32.9850 -96.5640 274° West 319 367 9,900 -600 Descending FlightAware
03:56AM 32.9870 -96.6080 273° West 300 345 9,700 -660 Descending FlightAware
03:57AM 32.9890 -96.6490 273° West 285 328 9,300 -780 Descending FlightAware
03:57AM 32.9960 -96.6890 282° West 268 308 9,000 -1,020 Descending FlightAware
03:58AM 33.0040 -96.7270 284° West 264 304 8,400 -1,440 Descending FlightAware
03:58AM 33.0130 -96.7670 285° West 259 298 7,700 -1,860 Descending FlightAware
03:59AM 33.0220 -96.8070 285° West 257 296 6,700 -1,980 Descending FlightAware
03:59AM 33.0250 -96.8210 284° West 260 299 6,400 -1,680 Descending FlightAware
03:59AM 33.0290 -96.8360 288° West 264 304 5,200 -1,380 Descending FlightAware
04:00AM 33.0510 -96.9140 289° West 264 304 4,700 -1,140 Descending FlightAware
04:00AM 33.0650 -96.9670 288° West 243 280 4,100 -1,020 Descending FlightAware
04:01AM 33.0670 -96.9990 274° West 220 253 3,800 -780 Descending FlightAware
04:01AM 33.0600 -97.0310 255° West 183 211 3,400 -840 Descending FlightAware
04:02AM 33.0530 -97.0410 230° Southwest 172 198 3,200 -600 Descending FlightAware
04:02AM 33.0370 -97.0520 210° Southwest 148 170 3,000 -540 Descending FlightAware
04:02AM 33.0240 -97.0540 187° South 142 163 2,800 -720 Descending FlightAware
04:03AM 32.9990 -97.0540 180° South 131 151 2,300 -780 Descending FlightAware
04:03AM 32.9900 -97.0540 180° South 130 150 2,100 -420 Descending FlightAware
04:04AM 32.9630 -97.0540 180° South 136 157 1,900 -660 Descending FlightAware
04:04AM 32.9500 -97.0500 180° South 135 155 1,400 -1,620 Descending Dallas / Fort Worth TRACON